Time;durP1;ratioP1;P1;durP2;ratioP2;P2;SDS_P1;SDS_P2;PMS_P1;PMS_P2;Temp;Humidity;BMP_temperature;BMP_pressure;BME280_temperature;BME280_humidity;BME280_pressure;Samples;Min_cycle;Max_cycle;Signal;HPM_P1;HPM_P2
2021/10/22 00:01:35;;;;;;;0.70;0.50;;;7.70;99.90;;;;;;5014370;28;20199;-70
2021/10/22 00:04:01;;;;;;;0.70;0.50;;;7.70;99.90;;;;;;5014087;28;20240;-70
2021/10/22 00:06:27;;;;;;;0.80;0.70;;;7.70;99.90;;;;;;5022832;28;20192;-70
2021/10/22 00:08:52;;;;;;;7.57;1.17;;;7.80;99.90;;;;;;5031698;28;20696;-70
2021/10/22 00:11:17;;;;;;;0.70;0.50;;;7.80;99.90;;;;;;5034622;28;20195;-70
2021/10/22 00:13:43;;;;;;;1.90;1.10;;;7.80;99.90;;;;;;5019503;28;20181;-70
2021/10/22 00:16:09;;;;;;;0.70;0.60;;;7.80;99.90;;;;;;5015436;28;20202;-70
2021/10/22 00:18:34;;;;;;;0.70;0.50;;;7.90;99.90;;;;;;5017794;28;20168;-70
2021/10/22 00:21:00;;;;;;;0.70;0.50;;;8.00;99.90;;;;;;5035367;28;20263;-70
2021/10/22 00:23:25;;;;;;;0.80;0.60;;;8.00;99.90;;;;;;5035322;28;20180;-70
2021/10/22 00:25:51;;;;;;;0.70;0.50;;;7.90;99.90;;;;;;5026558;28;20196;-70
2021/10/22 00:28:17;;;;;;;0.70;0.50;;;7.90;99.90;;;;;;5015356;28;20173;-69
2021/10/22 00:30:43;;;;;;;0.80;0.73;;;7.90;99.90;;;;;;5015297;28;20200;-70
2021/10/22 00:33:09;;;;;;;0.70;0.50;;;7.80;99.90;;;;;;5023800;28;20980;-70
2021/10/22 00:35:34;;;;;;;0.70;0.50;;;7.70;99.90;;;;;;5034736;28;20218;-70
2021/10/22 00:38:00;;;;;;;0.70;0.50;;;7.70;99.90;;;;;;5034806;28;20213;-70
2021/10/22 00:40:26;;;;;;;0.80;0.80;;;7.70;99.90;;;;;;5034983;28;20175;-70
2021/10/22 00:42:54;;;;;;;0.70;0.53;;;7.70;99.90;;;;;;5025515;28;20160;-70
2021/10/22 00:45:21;;;;;;;0.70;0.50;;;7.70;99.90;;;;;;5014774;28;20192;-70
2021/10/22 00:47:46;;;;;;;0.70;0.50;;;7.70;99.90;;;;;;5032948;28;20464;-70
2021/10/22 00:50:12;;;;;;;0.70;0.50;;;7.60;99.90;;;;;;5034705;28;20493;-70
2021/10/22 00:52:39;;;;;;;0.70;0.50;;;7.60;99.90;;;;;;5027603;28;20168;-70
2021/10/22 00:55:05;;;;;;;5.20;0.90;;;7.60;99.90;;;;;;5014542;28;20203;-70
2021/10/22 00:57:30;;;;;;;0.70;0.50;;;7.60;99.90;;;;;;5014819;28;20792;-70
2021/10/22 00:59:56;;;;;;;1.17;0.70;;;7.50;99.90;;;;;;5024091;28;20422;-70
2021/10/22 01:02:21;;;;;;;0.70;0.50;;;7.60;99.90;;;;;;5032320;28;20179;-70
2021/10/22 01:04:47;;;;;;;0.70;0.50;;;7.50;99.90;;;;;;5034281;28;20175;-70
2021/10/22 01:07:15;;;;;;;0.70;0.53;;;7.50;99.90;;;;;;5034433;28;20171;-70
2021/10/22 01:09:41;;;;;;;0.70;0.50;;;7.50;99.90;;;;;;5034348;28;20548;-70
2021/10/22 01:12:08;;;;;;;0.70;0.50;;;7.50;99.90;;;;;;5031797;28;20736;-70
2021/10/22 01:14:34;;;;;;;0.70;0.50;;;7.40;99.90;;;;;;5027738;28;20453;-70
2021/10/22 01:17:00;;;;;;;0.70;0.50;;;7.50;99.90;;;;;;5025549;28;20471;-70
2021/10/22 01:19:25;;;;;;;0.70;0.50;;;7.40;99.90;;;;;;5013222;28;20176;-70
2021/10/22 01:21:52;;;;;;;0.70;0.50;;;7.50;99.90;;;;;;5016502;28;20710;-70
2021/10/22 01:24:18;;;;;;;0.70;0.50;;;7.40;99.90;;;;;;5014404;28;20179;-70
2021/10/22 01:26:44;;;;;;;0.70;0.50;;;7.40;99.90;;;;;;5014447;28;20443;-70
2021/10/22 01:29:09;;;;;;;0.70;0.50;;;7.40;99.90;;;;;;5033803;28;20425;-71
2021/10/22 01:31:36;;;;;;;1.30;1.20;;;7.40;99.90;;;;;;5033876;28;20207;-69
2021/10/22 01:34:02;;;;;;;0.70;0.60;;;7.40;99.90;;;;;;5016663;28;20177;-69
2021/10/22 01:36:28;;;;;;;1.93;1.83;;;7.40;99.90;;;;;;5013880;28;20831;-70
2021/10/22 01:38:54;;;;;;;1.17;1.07;;;7.50;99.90;;;;;;5014134;28;20406;-69
2021/10/22 01:41:20;;;;;;;0.70;0.50;;;7.40;99.90;;;;;;5020711;28;21017;-70
2021/10/22 01:43:47;;;;;;;0.70;0.50;;;7.40;99.90;;;;;;5018921;28;20427;-69
2021/10/22 01:46:13;;;;;;;0.70;0.50;;;7.40;99.90;;;;;;5012339;28;20192;-69
2021/10/22 01:48:38;;;;;;;1.43;1.33;;;7.40;99.90;;;;;;5013919;28;20498;-70
2021/10/22 01:51:04;;;;;;;0.80;0.60;;;7.40;99.90;;;;;;5025406;28;20259;-70
2021/10/22 01:53:30;;;;;;;0.70;0.50;;;7.40;99.90;;;;;;5033243;28;20171;-69
2021/10/22 01:55:56;;;;;;;0.70;0.50;;;7.50;99.90;;;;;;5021572;28;20469;-70
2021/10/22 01:58:22;;;;;;;0.70;0.40;;;7.40;99.90;;;;;;5013710;28;20169;-69
2021/10/22 02:00:47;;;;;;;1.23;0.63;;;7.40;99.90;;;;;;5017216;28;20183;-70
2021/10/22 02:03:13;;;;;;;0.70;0.50;;;7.40;99.90;;;;;;5033444;28;20407;-69
2021/10/22 02:05:39;;;;;;;0.70;0.50;;;7.40;99.90;;;;;;5033100;28;20330;-69
2021/10/22 02:08:04;;;;;;;0.70;0.60;;;7.40;99.90;;;;;;5022521;28;20184;-69
2021/10/22 02:10:31;;;;;;;0.70;0.60;;;7.40;99.90;;;;;;5014767;28;20227;-70
2021/10/22 02:12:57;;;;;;;0.83;0.83;;;7.40;99.90;;;;;;5032987;28;20533;-69
2021/10/22 02:15:23;;;;;;;0.70;0.50;;;7.30;99.90;;;;;;5022581;28;20439;-69
2021/10/22 02:17:49;;;;;;;0.70;0.50;;;7.30;99.90;;;;;;5024554;28;20418;-70
2021/10/22 02:20:15;;;;;;;0.70;0.60;;;7.30;99.90;;;;;;5033169;28;20386;-70
2021/10/22 02:22:41;;;;;;;0.70;0.50;;;7.30;99.90;;;;;;5014424;28;20429;-69
2021/10/22 02:25:07;;;;;;;0.70;0.50;;;7.30;99.90;;;;;;5032629;28;20516;-69
2021/10/22 02:27:33;;;;;;;0.70;0.50;;;7.30;99.90;;;;;;5032890;28;20206;-70
2021/10/22 02:29:59;;;;;;;1.63;1.53;;;7.20;99.90;;;;;;5032847;28;20450;-70
2021/10/22 02:32:24;;;;;;;0.80;0.70;;;7.20;99.90;;;;;;5016364;28;20425;-70
2021/10/22 02:34:50;;;;;;;0.70;0.50;;;7.20;99.90;;;;;;5012859;28;20200;-70
2021/10/22 02:37:15;;;;;;;0.70;0.50;;;7.10;99.90;;;;;;5015425;28;20171;-69
2021/10/22 02:39:41;;;;;;;0.70;0.50;;;7.10;99.90;;;;;;5021289;28;20225;-70
2021/10/22 02:42:07;;;;;;;0.70;0.70;;;7.00;99.90;;;;;;5018889;28;20263;-70
2021/10/22 02:44:33;;;;;;;0.70;0.50;;;7.00;99.90;;;;;;5028312;28;20258;-69
2021/10/22 02:46:59;;;;;;;0.70;0.50;;;6.90;99.90;;;;;;5032321;28;20425;-69
2021/10/22 02:49:25;;;;;;;0.70;0.60;;;6.90;99.90;;;;;;5032554;28;20783;-70
2021/10/22 02:51:52;;;;;;;1.10;1.03;;;6.90;99.90;;;;;;5030231;28;20196;-70
2021/10/22 02:54:18;;;;;;;0.70;0.50;;;6.90;99.90;;;;;;5032516;28;20410;-70
2021/10/22 02:56:43;;;;;;;0.70;0.47;;;6.90;99.90;;;;;;5031996;28;21155;-69
2021/10/22 02:59:09;;;;;;;0.70;0.50;;;6.90;99.90;;;;;;5032341;28;20691;-70
2021/10/22 03:01:34;;;;;;;1.00;0.90;;;6.80;99.90;;;;;;5022625;28;20184;-70
2021/10/22 03:04:01;;;;;;;0.70;0.50;;;6.80;99.90;;;;;;5015495;28;20206;-70
2021/10/22 03:06:27;;;;;;;0.70;0.47;;;6.80;99.90;;;;;;5017853;28;20192;-69
2021/10/22 03:08:52;;;;;;;0.70;0.50;;;6.80;99.90;;;;;;5012544;28;20410;-69
2021/10/22 03:11:18;;;;;;;0.70;0.50;;;6.70;99.90;;;;;;5018350;28;20458;-69
2021/10/22 03:13:43;;;;;;;0.90;0.90;;;6.70;99.90;;;;;;5032082;28;20175;-69
2021/10/22 03:16:09;;;;;;;0.70;0.50;;;6.70;99.90;;;;;;5030393;28;20261;-69
2021/10/22 03:18:35;;;;;;;0.70;0.50;;;6.70;99.90;;;;;;5012372;28;20176;-70
2021/10/22 03:21:00;;;;;;;0.70;0.50;;;6.70;99.90;;;;;;5026944;28;20204;-69
2021/10/22 03:23:26;;;;;;;0.70;0.50;;;6.70;99.90;;;;;;5012457;28;20176;-70
2021/10/22 03:25:52;;;;;;;0.70;0.50;;;6.70;99.90;;;;;;5011934;28;20196;-69
2021/10/22 03:28:18;;;;;;;0.70;0.50;;;6.70;99.90;;;;;;5023841;28;20598;-68
2021/10/22 03:30:43;;;;;;;0.70;0.50;;;6.70;99.90;;;;;;5030338;28;20462;-70
2021/10/22 03:33:09;;;;;;;0.70;0.50;;;6.70;99.90;;;;;;5015055;28;20175;-70
2021/10/22 03:35:35;;;;;;;0.70;0.50;;;6.70;99.90;;;;;;5031386;28;20242;-69
2021/10/22 03:38:01;;;;;;;0.80;0.60;;;6.70;99.90;;;;;;5032041;28;20259;-70
2021/10/22 03:40:26;;;;;;;0.70;0.50;;;6.70;99.90;;;;;;5031947;28;20178;-70
2021/10/22 03:42:56;;;;;;;1.70;1.60;;;6.60;99.90;;;;;;5013590;28;20422;-69
2021/10/22 03:45:23;;;;;;;0.70;0.50;;;6.70;99.90;;;;;;5014236;28;20200;-70
2021/10/22 03:47:49;;;;;;;0.70;0.50;;;6.70;99.90;;;;;;5024076;28;20421;-70
2021/10/22 03:50:17;;;;;;;0.70;0.50;;;6.70;99.90;;;;;;5035618;28;20464;-70
2021/10/22 03:52:43;;;;;;;0.70;0.50;;;6.70;99.90;;;;;;5018994;28;20943;-70
2021/10/22 03:55:09;;;;;;;0.70;0.40;;;6.70;99.90;;;;;;5017543;28;20469;-70
2021/10/22 03:57:34;;;;;;;0.70;0.50;;;6.70;99.90;;;;;;5035620;28;20422;-70
2021/10/22 04:00:01;;;;;;;0.70;0.50;;;6.70;99.90;;;;;;5034503;28;20171;-70
2021/10/22 04:02:27;;;;;;;0.90;0.90;;;6.70;99.90;;;;;;5034119;28;20262;-70
2021/10/22 04:04:53;;;;;;;0.70;0.50;;;6.70;99.90;;;;;;5035311;28;20489;-70
2021/10/22 04:07:18;;;;;;;0.80;0.60;;;6.70;99.90;;;;;;5035589;28;20178;-70
2021/10/22 04:09:44;;;;;;;0.70;0.50;;;6.60;99.90;;;;;;5035383;28;20164;-69
2021/10/22 04:12:09;;;;;;;0.70;0.50;;;6.60;99.90;;;;;;5023690;28;20250;-69
2021/10/22 04:14:35;;;;;;;0.70;0.50;;;6.60;99.90;;;;;;5015727;28;20176;-69
2021/10/22 04:17:00;;;;;;;0.80;0.60;;;6.60;99.90;;;;;;5032533;28;20225;-69
2021/10/22 04:19:26;;;;;;;5.50;0.93;;;6.60;99.90;;;;;;5035494;28;20226;-70
2021/10/22 04:21:52;;;;;;;0.70;0.60;;;6.50;99.90;;;;;;5025830;28;20670;-69
2021/10/22 04:24:18;;;;;;;3.53;0.90;;;6.50;99.90;;;;;;5015496;28;20638;-70
2021/10/22 04:26:45;;;;;;;0.70;0.60;;;6.50;99.90;;;;;;5015156;28;20986;-69
2021/10/22 04:29:11;;;;;;;0.70;0.50;;;6.50;99.90;;;;;;5016488;28;20752;-69
2021/10/22 04:31:37;;;;;;;0.70;0.50;;;6.40;99.90;;;;;;5020695;28;20457;-69
2021/10/22 04:34:03;;;;;;;0.70;0.50;;;6.50;99.90;;;;;;5035078;28;20405;-70
2021/10/22 04:36:28;;;;;;;1.07;0.80;;;6.50;99.90;;;;;;5034691;28;20513;-70
2021/10/22 04:41:38;;;;;;;0.70;0.50;;;6.50;99.90;;;;;;5029085;28;20218;-69
2021/10/22 04:44:04;;;;;;;0.70;0.50;;;6.40;99.90;;;;;;5024050;28;20444;-70
2021/10/22 04:46:31;;;;;;;0.87;0.70;;;6.40;99.90;;;;;;5034320;28;20199;-69
2021/10/22 04:48:56;;;;;;;0.70;0.50;;;6.40;99.90;;;;;;5034909;28;20202;-69
2021/10/22 04:51:22;;;;;;;0.70;0.50;;;6.50;99.90;;;;;;5031264;28;20485;-69
2021/10/22 04:53:48;;;;;;;0.70;0.47;;;6.40;99.90;;;;;;5014950;28;20164;-70
2021/10/22 04:56:13;;;;;;;0.80;0.70;;;6.40;99.90;;;;;;5014316;28;20204;-70
2021/10/22 04:58:39;;;;;;;0.70;0.50;;;6.40;99.90;;;;;;5028400;28;20544;-69
2021/10/22 05:01:04;;;;;;;0.83;0.83;;;6.30;99.90;;;;;;5032040;28;20175;-69
2021/10/22 05:03:30;;;;;;;0.70;0.50;;;6.30;99.90;;;;;;5014834;28;20239;-69
2021/10/22 05:05:56;;;;;;;3.53;1.03;;;6.30;99.90;;;;;;5014392;28;20188;-70
2021/10/22 05:08:22;;;;;;;0.70;0.60;;;6.30;99.90;;;;;;5014676;28;20251;-70
2021/10/22 05:10:48;;;;;;;0.70;0.50;;;6.30;99.90;;;;;;5014629;28;20458;-69
2021/10/22 05:13:14;;;;;;;0.70;0.50;;;6.30;99.90;;;;;;5014960;28;20175;-70
2021/10/22 05:15:40;;;;;;;1.33;0.90;;;6.30;99.90;;;;;;5014338;28;20646;-70
2021/10/22 05:18:06;;;;;;;0.70;0.50;;;6.30;99.90;;;;;;5014562;28;20396;-70
2021/10/22 05:20:31;;;;;;;0.87;0.60;;;6.30;99.90;;;;;;5014545;28;20680;-70
2021/10/22 05:22:57;;;;;;;0.70;0.50;;;6.30;99.90;;;;;;5029622;28;20418;-69
2021/10/22 05:25:23;;;;;;;0.70;0.50;;;6.30;99.90;;;;;;5028965;28;20489;-69
2021/10/22 05:27:50;;;;;;;0.70;0.50;;;6.30;99.90;;;;;;5014538;28;20543;-69
2021/10/22 05:30:15;;;;;;;0.70;0.50;;;6.30;99.90;;;;;;5016569;28;20200;-69
2021/10/22 05:32:42;;;;;;;0.70;0.50;;;6.40;99.90;;;;;;5020809;28;20419;-70
2021/10/22 05:35:09;;;;;;;0.70;0.50;;;6.40;99.90;;;;;;5032765;28;20269;-70
2021/10/22 05:37:34;;;;;;;0.70;0.50;;;6.50;99.90;;;;;;5033900;28;20501;-70
2021/10/22 05:40:00;;;;;;;0.70;0.50;;;6.50;99.90;;;;;;5025543;28;20881;-69
2021/10/22 05:42:26;;;;;;;1.03;0.93;;;6.50;99.90;;;;;;5024204;28;20175;-69
2021/10/22 05:44:52;;;;;;;2.17;2.07;;;6.50;99.90;;;;;;5033581;28;20170;-69
2021/10/22 05:47:18;;;;;;;0.70;0.60;;;6.50;99.90;;;;;;5033769;28;20871;-69
2021/10/22 05:49:43;;;;;;;0.80;0.63;;;6.50;99.90;;;;;;5033752;28;20502;-69
2021/10/22 05:52:10;;;;;;;0.70;0.50;;;6.50;99.90;;;;;;5023925;28;20180;-69
2021/10/22 05:54:35;;;;;;;0.70;0.50;;;6.50;99.90;;;;;;5026332;28;20183;-68
2021/10/22 05:57:01;;;;;;;1.13;0.93;;;6.50;99.90;;;;;;5031759;28;20453;-69
2021/10/22 05:59:27;;;;;;;0.90;0.90;;;6.60;99.90;;;;;;5033569;28;20206;-70
2021/10/22 06:01:53;;;;;;;2.50;0.83;;;6.60;99.90;;;;;;5028091;28;20306;-69
2021/10/22 06:04:18;;;;;;;0.70;0.50;;;6.60;99.90;;;;;;5013582;28;20180;-68
2021/10/22 06:06:44;;;;;;;0.70;0.50;;;6.60;99.90;;;;;;5012925;28;20912;-68
2021/10/22 06:09:11;;;;;;;1.30;1.20;;;6.50;99.90;;;;;;5014345;28;20172;-69
2021/10/22 06:11:37;;;;;;;0.70;0.50;;;6.50;99.90;;;;;;5014654;28;20196;-69
2021/10/22 06:14:05;;;;;;;0.90;0.70;;;6.60;99.90;;;;;;5031943;28;20477;-68
2021/10/22 06:16:30;;;;;;;0.70;0.50;;;6.60;99.90;;;;;;5032886;28;20187;-68
2021/10/22 06:19:02;;;;;;;0.70;0.50;;;6.50;99.90;;;;;;5031416;28;20767;-68
2021/10/22 06:24:00;;;;;;;0.70;0.50;;;6.60;99.90;;;;;;5015700;28;20427;-70
2021/10/22 06:26:31;;;;;;;0.70;0.50;;;6.60;99.90;;;;;;5032712;28;20191;-70
2021/10/22 06:28:58;;;;;;;0.70;0.47;;;6.60;99.90;;;;;;5017224;28;20415;-70
2021/10/22 06:31:23;;;;;;;0.70;0.60;;;6.60;99.90;;;;;;5032207;28;20450;-70
2021/10/22 06:33:49;;;;;;;0.70;0.50;;;6.60;99.90;;;;;;5013148;28;20499;-70
2021/10/22 06:36:15;;;;;;;0.70;0.50;;;6.60;99.90;;;;;;5011426;28;20195;-70
2021/10/22 06:38:41;;;;;;;0.70;0.50;;;6.60;99.90;;;;;;5021423;28;20417;-70
2021/10/22 06:41:10;;;;;;;0.70;0.50;;;6.60;99.90;;;;;;5032746;28;20497;-69
2021/10/22 06:43:38;;;;;;;1.43;1.33;;;6.70;99.90;;;;;;5014434;28;20175;-70
2021/10/22 06:46:05;;;;;;;0.70;0.50;;;6.70;99.90;;;;;;5012516;28;20427;-70
2021/10/22 06:48:30;;;;;;;0.70;0.50;;;6.70;99.90;;;;;;5027862;28;20418;-70
2021/10/22 06:50:57;;;;;;;0.70;0.50;;;6.70;99.90;;;;;;5032571;28;20462;-70
2021/10/22 06:53:23;;;;;;;0.70;0.50;;;6.70;99.90;;;;;;5017284;28;20164;-70
2021/10/22 06:55:48;;;;;;;0.70;0.70;;;6.70;99.90;;;;;;5012375;28;20454;-69
2021/10/22 06:58:14;;;;;;;0.70;0.50;;;6.70;99.90;;;;;;5012862;28;20251;-69
2021/10/22 07:00:40;;;;;;;1.87;0.83;;;6.80;99.90;;;;;;5020021;28;20415;-68
2021/10/22 07:03:06;;;;;;;1.83;1.73;;;6.90;99.90;;;;;;5032510;28;20605;-69
2021/10/22 07:07:58;;;;;;;0.70;0.50;;;6.90;99.90;;;;;;5013531;28;20419;-69
2021/10/22 07:10:24;;;;;;;0.70;0.50;;;7.00;99.90;;;;;;5022054;28;20206;-70
2021/10/22 07:12:49;;;;;;;0.70;0.60;;;7.10;99.90;;;;;;5012546;28;20885;-70
2021/10/22 07:15:15;;;;;;;0.70;0.50;;;7.10;99.90;;;;;;5025061;28;20434;-69
2021/10/22 07:17:47;;;;;;;0.70;0.50;;;7.20;99.90;;;;;;5032244;28;20195;-70
2021/10/22 07:20:14;;;;;;;0.70;0.50;;;7.30;99.90;;;;;;5030099;28;20426;-70
2021/10/22 07:22:48;;;;;;;0.70;0.40;;;7.30;99.90;;;;;;5012841;28;20423;-69
2021/10/22 07:25:20;;;;;;;0.70;0.50;;;7.40;99.90;;;;;;5012154;28;21014;-70
2021/10/22 07:27:46;;;;;;;1.43;1.33;;;7.50;99.90;;;;;;5031335;28;20418;-71
2021/10/22 07:30:12;;;;;;;0.80;0.60;;;7.50;99.90;;;;;;5031957;28;20458;-69
2021/10/22 07:32:38;;;;;;;1.37;1.27;;;7.60;99.90;;;;;;5014191;28;20517;-69
2021/10/22 07:35:05;;;;;;;1.53;1.43;;;7.70;99.90;;;;;;5012204;28;20858;-69
2021/10/22 07:37:31;;;;;;;0.70;0.50;;;7.80;99.90;;;;;;5011954;28;20164;-69
2021/10/22 07:39:56;;;;;;;3.37;1.00;;;7.90;99.90;;;;;;5011587;28;20410;-69
2021/10/22 07:42:24;;;;;;;1.53;1.43;;;8.10;99.90;;;;;;5013905;28;20984;-69
2021/10/22 07:44:54;;;;;;;1.43;1.17;;;8.20;99.90;;;;;;5011515;28;20259;-69
2021/10/22 07:47:22;;;;;;;0.80;0.70;;;8.30;99.90;;;;;;5011589;28;20407;-69
2021/10/22 07:49:49;;;;;;;0.70;0.50;;;8.50;99.90;;;;;;5012187;28;20912;-70
2021/10/22 07:52:17;;;;;;;0.70;0.60;;;8.70;99.90;;;;;;5024564;28;20414;-69
2021/10/22 07:54:43;;;;;;;0.70;0.50;;;9.00;99.90;;;;;;5031132;28;20426;-69
2021/10/22 07:57:09;;;;;;;0.70;0.50;;;9.40;99.90;;;;;;5030807;28;20419;-70
2021/10/22 07:59:34;;;;;;;0.70;0.50;;;9.60;99.90;;;;;;5021666;28;20784;-69
2021/10/22 08:02:00;;;;;;;0.70;0.50;;;9.80;99.90;;;;;;5017241;28;20175;-69
2021/10/22 08:04:25;;;;;;;0.70;0.50;;;10.20;99.90;;;;;;5010726;28;20202;-70
2021/10/22 08:06:51;;;;;;;0.70;0.50;;;10.50;99.90;;;;;;5011645;28;20192;-69
2021/10/22 08:09:16;;;;;;;0.80;0.60;;;10.80;99.90;;;;;;5011750;28;20169;-70
2021/10/22 08:11:42;;;;;;;0.80;0.60;;;11.00;99.90;;;;;;5024373;28;20232;-70
2021/10/22 08:14:07;;;;;;;1.43;1.17;;;11.00;99.90;;;;;;5012055;28;20585;-69
2021/10/22 08:16:33;;;;;;;0.70;0.60;;;11.00;99.90;;;;;;5011845;28;20731;-70
2021/10/22 08:18:58;;;;;;;0.70;0.50;;;11.60;99.90;;;;;;5011687;28;20661;-69
2021/10/22 08:24:07;;;;;;;4.23;0.80;;;12.10;99.90;;;;;;5031018;28;20206;-69
2021/10/22 08:26:32;;;;;;;1.67;1.57;;;12.10;99.90;;;;;;5020752;28;20480;-69
2021/10/22 08:28:58;;;;;;;0.70;0.50;;;12.40;99.90;;;;;;5011856;28;20465;-68
2021/10/22 08:31:24;;;;;;;0.70;0.50;;;12.30;99.90;;;;;;5023157;28;20199;-69
2021/10/22 08:33:50;;;;;;;0.70;0.50;;;12.50;99.90;;;;;;5015437;28;20168;-69
2021/10/22 08:36:15;;;;;;;0.70;0.60;;;12.90;99.90;;;;;;5013744;28;20439;-69
2021/10/22 08:38:41;;;;;;;0.70;0.53;;;13.40;99.90;;;;;;5016413;28;20247;-70
2021/10/22 08:41:13;;;;;;;2.20;1.70;;;13.60;99.90;;;;;;5014881;28;20211;-69
2021/10/22 08:43:40;;;;;;;0.70;0.60;;;14.00;99.90;;;;;;5033677;28;20171;-70
2021/10/22 08:46:11;;;;;;;0.70;0.50;;;14.50;99.90;;;;;;5017905;28;20498;-69
2021/10/22 08:48:37;;;;;;;0.70;0.50;;;14.90;99.90;;;;;;5015944;28;20419;-69
2021/10/22 08:51:03;;;;;;;0.80;0.70;;;15.30;99.90;;;;;;5014903;28;20451;-69
2021/10/22 08:53:29;;;;;;;2.20;0.70;;;15.50;99.90;;;;;;5028944;28;20511;-69
2021/10/22 08:55:56;;;;;;;4.03;1.77;;;15.00;99.90;;;;;;5014484;28;20569;-68
2021/10/22 08:58:21;;;;;;;0.70;0.53;;;14.50;99.90;;;;;;5022925;28;20255;-69
2021/10/22 09:00:48;;;;;;;2.30;1.20;;;14.40;99.90;;;;;;5034511;28;20482;-69
2021/10/22 09:03:18;;;;;;;0.70;0.50;;;14.00;99.90;;;;;;5016519;28;20548;-69
2021/10/22 09:06:01;;;;;;;0.70;0.50;;;13.80;99.90;;;;;;5015080;28;20457;-69
2021/10/22 09:08:32;;;;;;;0.70;0.60;;;14.30;99.90;;;;;;5030199;28;20931;-69
2021/10/22 09:10:59;;;;;;;1.77;1.37;;;14.50;99.90;;;;;;5034452;28;20454;-69
2021/10/22 09:13:35;;;;;;;0.70;0.50;;;14.10;99.90;;;;;;5017099;28;20951;-70
2021/10/22 09:16:19;;;;;;;0.70;0.50;;;14.00;99.90;;;;;;5034036;28;20472;-68
2021/10/22 09:18:45;;;;;;;0.70;0.50;;;13.80;99.90;;;;;;5032713;28;20513;-69
2021/10/22 09:21:10;;;;;;;0.80;0.70;;;13.30;99.90;;;;;;5033807;28;20481;-69
2021/10/22 09:23:39;;;;;;;0.80;0.60;;;12.80;99.90;;;;;;5013836;28;20179;-69
2021/10/22 09:26:26;;;;;;;0.70;0.50;;;12.60;99.90;;;;;;5014237;28;20207;-68
2021/10/22 09:28:52;;;;;;;0.70;0.50;;;12.30;99.90;;;;;;5014802;28;20451;-68
2021/10/22 09:31:19;;;;;;;0.70;0.50;;;12.50;99.90;;;;;;5014742;28;20457;-68
2021/10/22 09:33:59;;;;;;;0.70;0.50;;;13.30;99.90;;;;;;5031613;28;20509;-69
2021/10/22 09:36:38;;;;;;;0.70;0.50;;;13.40;99.90;;;;;;5017307;28;20529;-68
2021/10/22 09:39:05;;;;;;;0.70;0.50;;;12.90;99.90;;;;;;5025922;28;20912;-69
2021/10/22 09:41:30;;;;;;;0.80;0.60;;;12.50;99.90;;;;;;5033306;28;20414;-68
2021/10/22 09:43:56;;;;;;;1.90;0.87;;;12.40;99.90;;;;;;5018468;28;20756;-68
2021/10/22 09:46:23;;;;;;;0.80;0.63;;;12.30;99.90;;;;;;5016642;28;20749;-68
2021/10/22 09:48:56;;;;;;;0.70;0.53;;;12.50;99.90;;;;;;5033759;28;20882;-68
2021/10/22 09:51:34;;;;;;;1.37;0.63;;;13.20;99.90;;;;;;5032343;28;20514;-69
2021/10/22 09:54:07;;;;;;;0.70;0.60;;;14.40;99.90;;;;;;5019280;28;20407;-69
2021/10/22 09:56:33;;;;;;;0.70;0.60;;;15.60;99.90;;;;;;5013417;28;20443;-68
2021/10/22 09:59:02;;;;;;;0.70;0.50;;;16.30;99.90;;;;;;5012420;28;20787;-66
2021/10/22 10:01:38;;;;;;;0.80;0.60;;;17.10;99.90;;;;;;5013323;28;20187;-67
2021/10/22 10:04:11;;;;;;;0.80;0.70;;;16.90;99.90;;;;;;5027299;28;20849;-67
2021/10/22 10:06:38;;;;;;;0.70;0.50;;;17.50;99.90;;;;;;5033114;28;20923;-68
2021/10/22 10:09:08;;;;;;;0.83;0.83;;;17.10;99.90;;;;;;5027943;28;20840;-68
2021/10/22 10:11:34;;;;;;;0.80;0.70;;;15.90;99.90;;;;;;5013483;28;20455;-69
2021/10/22 10:14:01;;;;;;;0.70;0.50;;;15.20;99.90;;;;;;5025989;28;20414;-70
2021/10/22 10:16:31;;;;;;;0.80;0.60;;;14.60;99.90;;;;;;5018118;28;20471;-69
2021/10/22 10:19:10;;;;;;;0.70;0.50;;;14.00;99.90;;;;;;5026710;28;21022;-67
2021/10/22 10:21:42;;;;;;;0.70;0.50;;;13.70;99.90;;;;;;5030893;28;20418;-68
2021/10/22 10:24:09;;;;;;;0.70;0.50;;;13.30;99.90;;;;;;5032708;28;20406;-69
2021/10/22 10:26:35;;;;;;;0.70;0.50;;;13.00;99.90;;;;;;5023969;28;20474;-67
2021/10/22 10:29:04;;;;;;;0.70;0.50;;;12.70;99.90;;;;;;5022343;28;20464;-67
2021/10/22 10:31:34;;;;;;;0.70;0.50;;;12.40;99.90;;;;;;5016606;28;20462;-67
2021/10/22 10:34:21;;;;;;;0.70;0.50;;;12.70;99.90;;;;;;5012849;28;20403;-67
2021/10/22 10:36:47;;;;;;;1.63;1.53;;;14.20;99.90;;;;;;5012465;28;20530;-68
2021/10/22 10:39:14;;;;;;;0.70;0.50;;;15.30;99.90;;;;;;5012890;28;20893;-68
2021/10/22 10:41:39;;;;;;;0.90;0.80;;;17.10;99.90;;;;;;5013744;28;20430;-68
2021/10/22 10:44:26;;;;;;;0.70;0.50;;;18.10;99.90;;;;;;5012375;28;20776;-68
2021/10/22 10:46:52;;;;;;;1.67;0.73;;;18.60;95.40;;;;;;5013466;28;20246;-68
2021/10/22 10:49:46;;;;;;;1.50;0.70;;;18.50;93.70;;;;;;5012742;28;20908;-69
2021/10/22 10:52:37;;;;;;;0.70;0.50;;;19.00;91.80;;;;;;5032500;28;20199;-69
2021/10/22 10:55:14;;;;;;;0.70;0.50;;;18.90;91.20;;;;;;5031527;28;20469;-69
2021/10/22 10:57:54;;;;;;;1.00;0.60;;;19.50;90.70;;;;;;5032109;28;20476;-69
2021/10/22 11:00:31;;;;;;;0.77;0.60;;;20.40;89.70;;;;;;5029434;28;20418;-69
2021/10/22 11:03:03;;;;;;;0.70;0.50;;;20.80;84.10;;;;;;5031861;28;20417;-69
2021/10/22 11:05:47;;;;;;;0.80;0.70;;;20.80;81.50;;;;;;5031545;28;20513;-70
2021/10/22 11:08:17;;;;;;;0.70;0.50;;;20.70;76.60;;;;;;5032186;28;20398;-69
2021/10/22 11:11:12;;;;;;;1.10;1.00;;;20.60;74.40;;;;;;5021923;28;20454;-69
2021/10/22 11:13:50;;;;;;;0.83;0.80;;;18.70;76.40;;;;;;5027211;28;20468;-69
2021/10/22 11:16:22;;;;;;;0.97;0.97;;;19.00;79.90;;;;;;5031037;28;20588;-69
2021/10/22 11:18:54;;;;;;;0.70;0.50;;;19.20;82.90;;;;;;5032027;28;20447;-69
2021/10/22 11:21:21;;;;;;;0.80;0.67;;;20.60;81.00;;;;;;5019170;28;20426;-69
2021/10/22 11:23:46;;;;;;;2.40;0.70;;;21.90;75.50;;;;;;5011762;28;20466;-69
2021/10/22 11:26:19;;;;;;;0.70;0.50;;;21.40;67.10;;;;;;5015138;28;20989;-69
2021/10/22 11:28:47;;;;;;;1.00;0.90;;;21.50;67.50;;;;;;5031913;28;20208;-69
2021/10/22 11:31:13;;;;;;;0.70;0.50;;;21.40;66.20;;;;;;5019552;28;20482;-70
2021/10/22 11:33:43;;;;;;;0.80;0.50;;;22.00;69.20;;;;;;5011952;28;20399;-69
2021/10/22 11:36:08;;;;;;;0.80;0.57;;;21.30;64.30;;;;;;5011761;28;20423;-70
2021/10/22 11:38:34;;;;;;;0.70;0.50;;;20.70;67.40;;;;;;5012084;28;20826;-69
2021/10/22 11:41:15;;;;;;;0.90;0.70;;;19.90;69.20;;;;;;5021180;28;20176;-69
2021/10/22 11:44:09;;;;;;;0.80;0.70;;;18.80;73.50;;;;;;5031329;28;20195;-69
2021/10/22 11:46:42;;;;;;;1.53;1.33;;;17.40;75.60;;;;;;5031347;28;20422;-69
2021/10/22 11:49:10;;;;;;;0.70;0.50;;;16.80;82.10;;;;;;5031712;28;20408;-69
2021/10/22 11:51:36;;;;;;;0.70;0.53;;;17.50;88.60;;;;;;5018409;28;20455;-70
2021/10/22 11:54:03;;;;;;;1.67;0.60;;;18.80;83.40;;;;;;5020545;28;20402;-69
2021/10/22 11:56:33;;;;;;;2.53;1.33;;;18.40;80.20;;;;;;5030745;28;20458;-69
2021/10/22 11:59:00;;;;;;;0.70;0.53;;;18.90;82.90;;;;;;5030287;28;20453;-69
2021/10/22 12:01:26;;;;;;;0.80;0.80;;;19.20;80.80;;;;;;5018378;28;20426;-69
2021/10/22 12:03:55;;;;;;;0.70;0.53;;;18.30;80.90;;;;;;5011407;28;20434;-69
2021/10/22 12:06:23;;;;;;;0.70;0.50;;;17.70;83.50;;;;;;5013892;28;20514;-69
2021/10/22 12:08:55;;;;;;;0.70;0.50;;;16.80;86.50;;;;;;5015851;28;20438;-69
2021/10/22 12:11:24;;;;;;;0.70;0.50;;;16.00;90.90;;;;;;5026967;28;20449;-68
2021/10/22 12:13:50;;;;;;;0.70;0.50;;;15.20;94.00;;;;;;5035424;28;20860;-70
2021/10/22 12:16:36;;;;;;;1.00;0.90;;;14.90;99.90;;;;;;5035075;28;20414;-68
2021/10/22 12:19:01;;;;;;;0.80;0.73;;;14.40;99.90;;;;;;5035152;28;20468;-68
2021/10/22 12:21:29;;;;;;;0.70;0.60;;;14.20;99.90;;;;;;5022688;28;20426;-69
2021/10/22 12:23:59;;;;;;;0.70;0.50;;;14.00;99.90;;;;;;5015028;28;20609;-68
2021/10/22 12:26:28;;;;;;;0.70;0.60;;;13.90;99.90;;;;;;5015085;28;20798;-68
2021/10/22 12:28:59;;;;;;;1.43;1.33;;;13.70;99.90;;;;;;5015371;28;20408;-69
2021/10/22 12:31:49;;;;;;;1.47;1.13;;;13.80;99.90;;;;;;5025877;28;20445;-69
2021/10/22 12:34:25;;;;;;;0.70;0.50;;;13.70;99.90;;;;;;5034999;28;20410;-69
2021/10/22 12:37:08;;;;;;;0.80;0.60;;;13.70;99.90;;;;;;5033728;28;21139;-69
2021/10/22 12:39:43;;;;;;;1.23;1.17;;;13.70;99.90;;;;;;5034946;28;20882;-69
2021/10/22 12:42:23;;;;;;;0.70;0.50;;;13.70;99.90;;;;;;5033287;28;20429;-69
2021/10/22 12:44:49;;;;;;;0.70;0.60;;;13.60;99.90;;;;;;5034249;28;20410;-69
2021/10/22 12:47:14;;;;;;;0.70;0.50;;;13.50;99.90;;;;;;5034811;28;20413;-69
2021/10/22 12:49:40;;;;;;;0.93;0.70;;;13.50;99.90;;;;;;5034830;28;20226;-68
2021/10/22 12:52:06;;;;;;;0.70;0.60;;;13.30;99.90;;;;;;5034013;28;20203;-69
2021/10/22 12:54:52;;;;;;;0.70;0.50;;;13.20;99.90;;;;;;5027754;28;20247;-69
2021/10/22 12:57:25;;;;;;;0.70;0.50;;;13.10;99.90;;;;;;5021319;28;20287;-69
2021/10/22 12:59:51;;;;;;;0.70;0.53;;;13.10;99.90;;;;;;5014819;28;20940;-69
2021/10/22 13:02:25;;;;;;;1.17;0.87;;;13.10;99.90;;;;;;5014541;28;20403;-69
2021/10/22 13:05:08;;;;;;;0.70;0.50;;;13.10;99.90;;;;;;5014101;28;20473;-68
2021/10/22 13:07:55;;;;;;;0.77;0.50;;;13.00;99.90;;;;;;5022276;28;20436;-69